createdAt,value
2019-04-16T00:00:34.610Z,13.80
2019-04-16T00:03:04.499Z,9.50
2019-04-16T00:05:42.753Z,8.97
2019-04-16T00:08:31.426Z,9.73
2019-04-16T00:11:05.058Z,9.97
2019-04-16T00:14:05.566Z,9.60
2019-04-16T00:16:35.214Z,8.70
2019-04-16T00:19:06.522Z,8.33
2019-04-16T00:21:53.748Z,7.57
2019-04-16T00:24:29.502Z,9.60
2019-04-16T00:27:00.043Z,9.00
2019-04-16T00:29:32.677Z,9.37
2019-04-16T00:32:11.955Z,8.87
2019-04-16T00:34:44.500Z,8.73
2019-04-16T00:37:12.747Z,8.27
2019-04-16T00:39:42.313Z,8.67
2019-04-16T00:42:11.896Z,8.90
2019-04-16T00:44:41.495Z,8.53
2019-04-16T00:47:11.191Z,8.33
2019-04-16T00:49:40.714Z,8.40
2019-04-16T00:52:10.422Z,8.20
2019-04-16T00:54:42.399Z,8.10
2019-04-16T00:57:12.130Z,8.60
2019-04-16T00:59:41.990Z,8.67
2019-04-16T01:02:11.550Z,9.63
2019-04-16T01:04:41.075Z,10.63
2019-04-16T01:07:10.714Z,9.50
2019-04-16T01:09:40.296Z,10.03
2019-04-16T01:12:09.888Z,9.43
2019-04-16T01:14:39.409Z,9.63
2019-04-16T01:17:09.006Z,9.20
2019-04-16T01:19:41.081Z,9.67
2019-04-16T01:22:09.954Z,8.97
2019-04-16T01:24:39.495Z,10.20
2019-04-16T01:27:09.310Z,10.10
2019-04-16T01:29:38.962Z,8.93
2019-04-16T01:32:30.602Z,9.53
2019-04-16T01:35:22.207Z,10.00
2019-04-16T01:38:09.470Z,9.90
2019-04-16T01:41:00.450Z,8.97
2019-04-16T01:43:30.056Z,9.87
2019-04-16T01:46:01.269Z,13.53
2019-04-16T01:48:31.034Z,10.33
2019-04-16T01:51:00.572Z,9.03
2019-04-16T01:53:30.138Z,9.03
2019-04-16T01:55:59.659Z,9.70
2019-04-16T01:58:33.569Z,9.00
2019-04-16T02:01:00.673Z,8.70
2019-04-16T02:03:30.349Z,10.50
2019-04-16T02:05:59.885Z,9.77
2019-04-16T02:08:31.155Z,11.07
2019-04-16T02:11:00.705Z,10.17
2019-04-16T02:13:30.294Z,9.10
2019-04-16T02:15:59.810Z,9.03
2019-04-16T02:18:30.293Z,9.53
2019-04-16T02:21:00.009Z,10.10
2019-04-16T02:23:29.597Z,9.13
2019-04-16T02:25:59.145Z,9.57
2019-04-16T02:28:29.054Z,9.10
2019-04-16T02:30:58.634Z,9.03
2019-04-16T02:33:28.256Z,8.93
2019-04-16T02:35:57.783Z,9.10
2019-04-16T02:38:27.360Z,9.57
2019-04-16T02:40:56.907Z,9.30
2019-04-16T02:43:26.518Z,10.00
2019-04-16T02:45:58.256Z,9.60
2019-04-16T02:48:27.410Z,9.10
2019-04-16T02:51:05.324Z,8.83
2019-04-16T02:53:54.504Z,10.47
2019-04-16T02:56:41.824Z,9.60
2019-04-16T02:59:14.729Z,9.50
2019-04-16T03:01:57.803Z,9.43
2019-04-16T03:04:31.466Z,10.90
2019-04-16T03:07:03.301Z,11.70
2019-04-16T03:09:32.283Z,10.87
2019-04-16T03:12:01.878Z,11.17
2019-04-16T03:14:31.475Z,10.83
2019-04-16T03:17:14.727Z,10.70
2019-04-16T03:19:45.031Z,10.27
2019-04-16T03:22:14.673Z,11.27
2019-04-16T03:24:44.199Z,10.93
2019-04-16T03:27:13.779Z,11.10
2019-04-16T03:29:43.307Z,11.17
2019-04-16T03:32:15.007Z,11.57
2019-04-16T03:34:44.192Z,11.07
2019-04-16T03:37:13.836Z,11.20
2019-04-16T03:39:44.671Z,10.70
2019-04-16T03:42:14.541Z,10.10
2019-04-16T03:44:44.979Z,10.10
2019-04-16T03:47:15.783Z,11.03
2019-04-16T03:49:45.851Z,9.87
2019-04-16T03:52:15.427Z,10.80
2019-04-16T03:54:44.977Z,11.57
2019-04-16T03:57:14.550Z,11.07
2019-04-16T03:59:44.119Z,10.33
2019-04-16T04:02:15.295Z,11.37
2019-04-16T04:04:44.962Z,10.87
2019-04-16T04:07:14.531Z,11.57
2019-04-16T04:09:44.057Z,10.50
2019-04-16T04:12:14.310Z,11.60
2019-04-16T04:14:44.096Z,11.73
2019-04-16T04:17:13.666Z,11.17
2019-04-16T04:19:43.550Z,12.63
2019-04-16T04:22:14.542Z,10.50
2019-04-16T04:24:44.080Z,11.50
2019-04-16T04:27:18.282Z,11.17
2019-04-16T04:29:46.449Z,11.20
2019-04-16T04:32:16.222Z,11.47
2019-04-16T04:34:48.818Z,11.97
2019-04-16T04:37:17.241Z,11.53
2019-04-16T04:39:46.758Z,11.80
2019-04-16T04:42:18.971Z,11.57
2019-04-16T04:44:47.611Z,12.60
2019-04-16T04:47:19.401Z,12.33
2019-04-16T04:49:48.480Z,12.47
2019-04-16T04:52:18.011Z,12.47
2019-04-16T04:54:47.839Z,13.40
2019-04-16T04:57:17.364Z,12.80
2019-04-16T04:59:46.959Z,13.30
2019-04-16T05:02:16.516Z,12.90
2019-04-16T05:05:08.283Z,13.80
2019-04-16T05:07:37.813Z,13.77
2019-04-16T05:10:08.461Z,13.13
2019-04-16T05:12:38.010Z,12.20
2019-04-16T05:15:07.603Z,13.50
2019-04-16T05:17:38.465Z,13.03
2019-04-16T05:20:08.538Z,12.47
2019-04-16T05:22:38.055Z,12.07
2019-04-16T05:25:07.634Z,14.77
2019-04-16T05:27:40.107Z,13.00
2019-04-16T05:30:08.622Z,12.70
2019-04-16T05:32:38.171Z,13.03
2019-04-16T05:35:10.221Z,12.50
2019-04-16T05:37:39.226Z,12.37
2019-04-16T05:40:09.336Z,13.30
2019-04-16T05:42:38.875Z,12.90
2019-04-16T05:45:08.464Z,13.43
2019-04-16T05:47:38.363Z,13.43
2019-04-16T05:50:08.102Z,13.37
2019-04-16T05:52:37.703Z,13.47
2019-04-16T05:55:16.733Z,13.63
2019-04-16T05:57:45.608Z,13.13
2019-04-16T06:00:22.135Z,12.37
2019-04-16T06:02:51.996Z,12.80
2019-04-16T06:05:24.264Z,16.57
2019-04-16T06:07:54.650Z,15.77
2019-04-16T06:10:24.162Z,16.20
2019-04-16T06:13:05.887Z,17.50
2019-04-16T06:16:00.660Z,15.10
2019-04-16T06:18:47.843Z,13.30
2019-04-16T06:21:40.075Z,13.47
2019-04-16T06:24:28.798Z,12.93
2019-04-16T06:27:07.276Z,13.57
2019-04-16T06:30:01.314Z,13.73
2019-04-16T06:32:36.375Z,12.80
2019-04-16T06:35:42.575Z,12.80
2019-04-16T06:38:07.196Z,13.60
2019-04-16T06:41:03.010Z,13.67
2019-04-16T06:43:34.678Z,14.47
2019-04-16T06:46:26.379Z,14.00
2019-04-16T06:49:18.899Z,13.10
2019-04-16T06:52:16.581Z,13.83
2019-04-16T06:55:12.368Z,14.30
2019-04-16T06:58:04.639Z,13.70
2019-04-16T07:00:49.360Z,14.40
2019-04-16T07:03:33.404Z,13.90
2019-04-16T07:06:20.776Z,14.43
2019-04-16T07:09:09.492Z,13.50
2019-04-16T07:11:39.799Z,13.57
2019-04-16T07:14:11.510Z,12.60
2019-04-16T07:16:40.898Z,14.17
2019-04-16T07:19:11.532Z,16.80
2019-04-16T07:21:41.295Z,14.90
2019-04-16T07:24:11.123Z,14.87
2019-04-16T07:26:46.657Z,14.33
2019-04-16T07:29:23.619Z,13.93
2019-04-16T07:32:30.625Z,14.70
2019-04-16T07:35:19.335Z,13.57
2019-04-16T07:38:06.926Z,15.80
2019-04-16T07:40:46.038Z,14.07
2019-04-16T07:43:31.936Z,14.70
2019-04-16T07:46:17.487Z,14.63
2019-04-16T07:48:55.634Z,14.83
2019-04-16T07:51:50.525Z,14.13
2019-04-16T07:54:39.200Z,13.63
2019-04-16T07:57:08.778Z,14.10
2019-04-16T07:59:38.321Z,14.83
2019-04-16T08:02:08.011Z,13.57
2019-04-16T08:04:37.627Z,13.67
2019-04-16T08:07:07.375Z,13.87
2019-04-16T08:09:36.983Z,13.27
2019-04-16T08:12:10.738Z,13.13
2019-04-16T08:14:37.941Z,12.60
2019-04-16T08:17:07.563Z,14.73
2019-04-16T08:19:37.666Z,14.40
2019-04-16T08:22:07.378Z,14.20
2019-04-16T08:24:40.155Z,14.00
2019-04-16T08:27:10.845Z,13.73
2019-04-16T08:29:40.550Z,13.67
2019-04-16T08:32:12.908Z,14.53
2019-04-16T08:34:41.506Z,12.70
2019-04-16T08:37:11.120Z,14.37
2019-04-16T08:39:40.759Z,13.40
2019-04-16T08:42:10.287Z,13.67
2019-04-16T08:44:39.910Z,14.37
2019-04-16T08:47:11.943Z,12.90
2019-04-16T08:49:41.020Z,13.23
2019-04-16T08:52:11.144Z,14.43
2019-04-16T08:54:41.032Z,12.93
2019-04-16T08:57:10.566Z,12.27
2019-04-16T08:59:42.593Z,12.80
2019-04-16T09:02:11.382Z,13.87
2019-04-16T09:04:41.072Z,12.40
2019-04-16T09:07:29.738Z,13.00
2019-04-16T09:09:59.702Z,13.10
2019-04-16T09:12:29.381Z,12.80
2019-04-16T09:14:59.079Z,12.13
2019-04-16T09:17:32.115Z,12.17
2019-04-16T09:20:16.367Z,13.50
2019-04-16T09:22:49.086Z,12.63
2019-04-16T09:25:51.395Z,13.03
2019-04-16T09:28:38.781Z,13.43
2019-04-16T09:31:42.793Z,13.70
2019-04-16T09:34:30.897Z,14.43
2019-04-16T09:37:37.716Z,14.37
2019-04-16T09:40:32.635Z,14.30
2019-04-16T09:43:15.696Z,13.47
2019-04-16T09:45:37.209Z,13.27
2019-04-16T09:48:05.740Z,13.70
2019-04-16T09:50:35.470Z,14.17
2019-04-16T09:53:05.039Z,13.70
2019-04-16T09:55:34.727Z,14.03
2019-04-16T09:58:10.899Z,13.83
2019-04-16T10:00:42.151Z,13.60
2019-04-16T10:03:33.085Z,13.50
2019-04-16T10:06:05.274Z,13.23
2019-04-16T10:08:34.011Z,15.60
2019-04-16T10:11:06.029Z,14.10
2019-04-16T10:13:36.322Z,13.53
2019-04-16T10:16:06.591Z,15.03
2019-04-16T10:18:36.181Z,15.03
2019-04-16T10:21:05.841Z,14.70
2019-04-16T10:23:41.041Z,14.83
2019-04-16T10:26:10.731Z,15.33
2019-04-16T10:28:40.408Z,14.60
2019-04-16T10:31:10.940Z,16.20
2019-04-16T10:33:40.622Z,14.23
2019-04-16T10:36:10.318Z,14.20
2019-04-16T10:39:04.957Z,14.23
2019-04-16T10:41:38.060Z,17.53
2019-04-16T10:44:19.606Z,29.70
2019-04-16T10:47:19.945Z,25.47
2019-04-16T10:50:14.990Z,25.93
2019-04-16T10:53:02.638Z,46.73
2019-04-16T10:55:49.424Z,59.93
2019-04-16T10:58:44.123Z,20.17
2019-04-16T11:01:38.878Z,17.23
2019-04-16T11:04:19.032Z,18.43
2019-04-16T11:06:49.662Z,13.97
2019-04-16T11:09:19.277Z,16.27
2019-04-16T11:11:48.972Z,17.27
2019-04-16T11:14:18.563Z,21.50
2019-04-16T11:16:50.388Z,17.47
2019-04-16T11:19:20.825Z,13.23
2019-04-16T11:21:50.576Z,14.10
2019-04-16T11:24:20.721Z,16.53
2019-04-16T11:26:50.764Z,15.95
2019-04-16T11:29:20.804Z,36.00
2019-04-16T11:31:50.549Z,78.77
2019-04-16T11:34:20.319Z,22.00
2019-04-16T11:36:50.047Z,23.60
2019-04-16T11:39:19.601Z,14.07
2019-04-16T11:41:49.406Z,20.17
2019-04-16T11:44:19.323Z,12.43
2019-04-16T11:46:49.266Z,13.83
2019-04-16T11:49:20.494Z,10.67
2019-04-16T11:51:50.113Z,9.90
2019-04-16T11:54:19.743Z,9.83
2019-04-16T11:56:49.737Z,11.87
2019-04-16T11:59:19.616Z,11.90
2019-04-16T12:01:54.463Z,12.53
2019-04-16T12:04:43.131Z,11.73
2019-04-16T12:07:34.927Z,12.98
2019-04-16T12:10:22.820Z,11.03
2019-04-16T12:13:10.053Z,11.23
2019-04-16T12:15:45.313Z,18.37
2019-04-16T12:18:21.916Z,18.33
2019-04-16T12:21:01.731Z,16.00
2019-04-16T12:23:49.425Z,24.13
2019-04-16T12:26:45.168Z,16.13
2019-04-16T12:29:23.234Z,15.07
2019-04-16T12:32:04.138Z,13.23
2019-04-16T12:34:51.357Z,126.27
2019-04-16T12:37:38.687Z,191.97
2019-04-16T12:40:18.624Z,121.20
2019-04-16T12:42:54.906Z,23.13
2019-04-16T12:45:33.337Z,15.17
2019-04-16T12:48:31.270Z,12.50
2019-04-16T12:51:25.524Z,11.40
2019-04-16T12:54:18.142Z,11.10
2019-04-16T12:57:07.034Z,10.50
2019-04-16T12:59:59.871Z,10.50
2019-04-16T13:02:44.852Z,11.03
2019-04-16T13:05:23.319Z,10.23
2019-04-16T13:08:11.999Z,11.10
2019-04-16T13:10:59.837Z,11.63
2019-04-16T13:13:47.264Z,10.83
2019-04-16T13:16:20.490Z,10.77
2019-04-16T13:19:18.349Z,10.67
2019-04-16T13:21:52.602Z,11.20
2019-04-16T13:24:33.216Z,10.43
2019-04-16T13:27:30.762Z,10.97
2019-04-16T13:30:01.884Z,10.73
2019-04-16T13:32:31.688Z,10.73
2019-04-16T13:35:01.342Z,11.23
2019-04-16T13:37:36.899Z,10.47
2019-04-16T13:40:08.228Z,10.87
2019-04-16T13:42:37.803Z,10.80
2019-04-16T13:45:36.323Z,11.83
2019-04-16T13:48:16.633Z,10.43
2019-04-16T13:50:49.085Z,11.53
2019-04-16T13:53:53.012Z,10.87
2019-04-16T13:56:50.605Z,10.97
2019-04-16T13:59:33.354Z,10.03
2019-04-16T14:02:20.703Z,11.17
2019-04-16T14:04:50.235Z,11.07
2019-04-16T14:07:20.099Z,10.77
2019-04-16T14:09:49.643Z,10.67
2019-04-16T14:12:24.517Z,28.70
2019-04-16T14:14:50.933Z,17.83
2019-04-16T14:17:24.122Z,31.77
2019-04-16T14:19:53.700Z,26.37
2019-04-16T14:22:23.447Z,14.60
2019-04-16T14:24:53.019Z,13.73
2019-04-16T14:27:22.754Z,30.00
2019-04-16T14:29:52.423Z,53.50
2019-04-16T14:32:22.071Z,23.43
2019-04-16T14:34:56.826Z,15.63
2019-04-16T14:37:26.509Z,11.20
2019-04-16T14:40:10.544Z,10.60
2019-04-16T14:42:40.265Z,10.00
2019-04-16T14:45:17.967Z,11.23
2019-04-16T14:47:47.591Z,10.33
2019-04-16T14:50:19.899Z,9.30
2019-04-16T14:52:48.518Z,8.83
2019-04-16T14:55:35.739Z,10.03
2019-04-16T14:58:22.992Z,8.50
2019-04-16T15:01:10.175Z,9.33
2019-04-16T15:03:57.539Z,9.60
2019-04-16T15:07:04.383Z,8.93
2019-04-16T15:09:53.245Z,8.53
2019-04-16T15:12:27.691Z,9.33
2019-04-16T15:15:01.159Z,8.10
2019-04-16T15:17:41.511Z,9.00
2019-04-16T15:20:32.832Z,8.37
2019-04-16T15:23:13.402Z,9.73
2019-04-16T15:26:03.168Z,9.38
2019-04-16T15:28:43.423Z,8.23
2019-04-16T15:31:20.714Z,8.50
2019-04-16T15:33:54.754Z,7.73
2019-04-16T15:36:44.408Z,7.63
2019-04-16T15:39:17.251Z,8.57
2019-04-16T15:42:04.444Z,8.40
2019-04-16T15:44:56.186Z,8.80
2019-04-16T15:47:42.864Z,7.97
2019-04-16T15:50:35.183Z,9.10
2019-04-16T15:53:27.563Z,30.77
2019-04-16T15:56:10.947Z,30.63
2019-04-16T15:59:03.040Z,29.03
2019-04-16T16:01:54.944Z,50.13
2019-04-16T16:04:42.367Z,41.37
2019-04-16T16:07:14.815Z,31.87
2019-04-16T16:10:03.571Z,40.55
2019-04-16T16:12:33.755Z,10.07
2019-04-16T16:15:07.595Z,9.20
2019-04-16T16:17:35.039Z,10.30
2019-04-16T16:20:09.649Z,10.37
2019-04-16T16:22:36.410Z,10.10
2019-04-16T16:25:06.610Z,10.57
2019-04-16T16:27:41.774Z,9.73
2019-04-16T16:30:07.653Z,11.87
2019-04-16T16:32:37.307Z,10.10
2019-04-16T16:35:07.206Z,9.83
2019-04-16T16:37:37.560Z,9.67
2019-04-16T16:40:07.353Z,10.03
2019-04-16T16:42:37.003Z,10.83
2019-04-16T16:45:07.249Z,14.90
2019-04-16T16:47:40.343Z,12.27
2019-04-16T16:50:12.462Z,11.17
2019-04-16T16:53:07.124Z,10.10
2019-04-16T16:55:59.284Z,10.20
2019-04-16T16:58:51.379Z,9.83
2019-04-16T17:01:38.704Z,10.00
2019-04-16T17:04:17.128Z,9.83
2019-04-16T17:06:46.748Z,9.90
2019-04-16T17:09:33.047Z,11.17
2019-04-16T17:12:03.414Z,17.50
2019-04-16T17:14:36.417Z,18.37
2019-04-16T17:17:13.919Z,11.03
2019-04-16T17:19:36.613Z,15.07
2019-04-16T17:22:06.203Z,17.20
2019-04-16T17:24:35.876Z,16.77
2019-04-16T17:27:05.848Z,20.75
2019-04-16T17:29:35.397Z,19.17
2019-04-16T17:32:05.079Z,16.00
2019-04-16T17:34:39.808Z,13.37
2019-04-16T17:37:08.429Z,12.83
2019-04-16T17:39:52.334Z,15.03
2019-04-16T17:42:27.195Z,9.50
2019-04-16T17:45:14.492Z,5.37
2019-04-16T17:48:01.656Z,4.60
2019-04-16T17:50:40.506Z,4.50
2019-04-16T17:53:35.288Z,4.23
2019-04-16T17:56:22.971Z,4.73
2019-04-16T17:58:55.853Z,4.83
2019-04-16T18:01:44.574Z,4.77
2019-04-16T18:04:44.613Z,4.60
2019-04-16T18:07:24.264Z,3.83
2019-04-16T18:10:15.791Z,3.20
2019-04-16T18:12:56.604Z,2.97
2019-04-16T18:15:49.011Z,3.63
2019-04-16T18:18:37.887Z,4.30
2019-04-16T18:21:16.480Z,4.43
2019-04-16T18:23:52.465Z,6.07
2019-04-16T18:26:41.246Z,6.67
2019-04-16T18:29:35.738Z,5.60
2019-04-16T18:32:34.685Z,4.10
2019-04-16T18:35:26.708Z,5.87
2019-04-16T18:38:15.543Z,7.90
2019-04-16T18:41:04.165Z,8.47
2019-04-16T18:43:55.583Z,4.70
2019-04-16T18:46:44.562Z,4.00
2019-04-16T18:49:18.103Z,6.13
2019-04-16T18:51:47.877Z,5.30
2019-04-16T18:54:17.554Z,4.53
2019-04-16T18:56:47.319Z,4.83
2019-04-16T18:59:16.992Z,8.13
2019-04-16T19:01:48.568Z,8.63
2019-04-16T19:04:18.374Z,7.43
2019-04-16T19:06:48.118Z,5.20
2019-04-16T19:09:20.843Z,4.90
2019-04-16T19:11:49.317Z,5.13
2019-04-16T19:14:19.140Z,6.60
2019-04-16T19:16:49.155Z,5.13
2019-04-16T19:19:21.915Z,5.23
2019-04-16T19:21:52.185Z,5.03
2019-04-16T19:24:22.231Z,4.90
2019-04-16T19:26:52.593Z,4.03
2019-04-16T19:29:22.256Z,4.00
2019-04-16T19:31:54.978Z,4.37
2019-04-16T19:34:23.362Z,4.47
2019-04-16T19:36:56.257Z,8.40
2019-04-16T19:39:24.382Z,6.27
2019-04-16T19:41:57.170Z,5.17
2019-04-16T19:44:25.238Z,4.70
2019-04-16T19:46:54.997Z,5.50
2019-04-16T19:49:24.721Z,3.57
2019-04-16T19:51:54.395Z,3.90
2019-04-16T19:54:23.994Z,3.80
2019-04-16T19:56:53.597Z,4.00
2019-04-16T19:59:23.477Z,4.17
2019-04-16T20:01:55.786Z,4.47
2019-04-16T20:04:24.559Z,4.17
2019-04-16T20:06:59.728Z,5.10
2019-04-16T20:09:25.517Z,5.27
2019-04-16T20:11:56.388Z,4.57
2019-04-16T20:14:26.384Z,5.60
2019-04-16T20:16:55.939Z,5.60
2019-04-16T20:19:25.686Z,6.10
2019-04-16T20:21:55.367Z,5.83
2019-04-16T20:24:25.144Z,6.23
2019-04-16T20:26:55.072Z,7.33
2019-04-16T20:29:24.889Z,7.40
2019-04-16T20:31:54.473Z,7.27
2019-04-16T20:34:24.242Z,7.90
2019-04-16T20:36:55.790Z,7.37
2019-04-16T20:39:25.359Z,8.30
2019-04-16T20:41:58.743Z,7.40
2019-04-16T20:44:26.712Z,7.80
2019-04-16T20:46:58.316Z,7.97
2019-04-16T20:49:27.809Z,7.20
2019-04-16T20:52:00.652Z,8.33
2019-04-16T20:54:28.993Z,7.30
2019-04-16T20:56:58.750Z,7.77
2019-04-16T20:59:28.559Z,7.90
2019-04-16T21:01:58.359Z,8.20
2019-04-16T21:04:28.293Z,7.03
2019-04-16T21:06:58.194Z,7.80
2019-04-16T21:09:30.129Z,7.70
2019-04-16T21:11:59.250Z,10.33
2019-04-16T21:14:29.078Z,9.93
2019-04-16T21:16:58.876Z,9.30
2019-04-16T21:19:47.939Z,8.73
2019-04-16T21:22:18.486Z,8.03
2019-04-16T21:24:48.171Z,8.73
2019-04-16T21:27:17.837Z,8.20
2019-04-16T21:29:47.759Z,7.63
2019-04-16T21:32:40.485Z,7.33
2019-04-16T21:35:18.215Z,7.57
2019-04-16T21:38:04.938Z,6.60
2019-04-16T21:40:34.639Z,6.03
2019-04-16T21:43:07.700Z,6.53
2019-04-16T21:45:35.683Z,6.37
2019-04-16T21:48:05.631Z,6.53
2019-04-16T21:50:35.344Z,5.30
2019-04-16T21:53:05.050Z,6.20
2019-04-16T21:55:35.445Z,5.47
2019-04-16T21:58:05.827Z,6.87
2019-04-16T22:01:05.005Z,6.20
2019-04-16T22:03:35.098Z,5.20
2019-04-16T22:06:04.859Z,6.83
2019-04-16T22:08:34.497Z,5.87
2019-04-16T22:11:04.959Z,4.40
2019-04-16T22:13:34.694Z,6.37
2019-04-16T22:16:04.793Z,5.80
2019-04-16T22:18:34.584Z,4.13
2019-04-16T22:21:09.552Z,6.20
2019-04-16T22:23:37.565Z,5.03
2019-04-16T22:26:10.043Z,6.03
2019-04-16T22:28:38.654Z,4.93
2019-04-16T22:31:08.470Z,5.27
2019-04-16T22:33:38.118Z,4.67
2019-04-16T22:36:07.842Z,5.07
2019-04-16T22:38:37.883Z,4.87
2019-04-16T22:41:27.552Z,11.60
2019-04-16T22:44:34.798Z,9.67
2019-04-16T22:47:09.346Z,9.10
2019-04-16T22:49:39.131Z,12.73
2019-04-16T22:52:12.226Z,10.10
2019-04-16T22:54:40.394Z,11.33
2019-04-16T22:57:12.580Z,17.10
2019-04-16T22:59:42.582Z,9.90
2019-04-16T23:02:24.199Z,11.63
2019-04-16T23:04:54.879Z,12.70
2019-04-16T23:07:25.460Z,9.63
2019-04-16T23:09:55.342Z,18.23
2019-04-16T23:12:28.047Z,28.37
2019-04-16T23:14:56.744Z,23.77
2019-04-16T23:17:26.900Z,16.83
2019-04-16T23:19:57.146Z,9.07
2019-04-16T23:22:26.838Z,8.10
2019-04-16T23:24:56.526Z,10.00
2019-04-16T23:27:26.310Z,5.73
2019-04-16T23:29:56.086Z,5.63
2019-04-16T23:32:28.686Z,6.50
2019-04-16T23:34:57.392Z,4.77
2019-04-16T23:37:27.172Z,5.43
2019-04-16T23:39:56.840Z,7.87
2019-04-16T23:42:26.551Z,8.33
2019-04-16T23:45:04.148Z,7.07
2019-04-16T23:47:56.084Z,4.80
2019-04-16T23:50:44.709Z,5.57
2019-04-16T23:53:12.247Z,4.63
2019-04-16T23:55:51.824Z,4.03
2019-04-16T23:58:28.561Z,4.00
